sensor_id;sensor_type;location;lat;lon;timestamp;P1;durP1;ratioP1;P2;durP2;ratioP2
64710;SDS011;51139;45.626;6.850;2022-12-07T00:01:22;4.70;;;0.82;;
64710;SDS011;51139;45.626;6.850;2022-12-07T00:03:50;3.72;;;0.70;;
64710;SDS011;51139;45.626;6.850;2022-12-07T00:06:17;3.47;;;0.98;;
64710;SDS011;51139;45.626;6.850;2022-12-07T00:08:44;2.45;;;0.77;;
64710;SDS011;51139;45.626;6.850;2022-12-07T00:11:14;4.32;;;0.80;;
64710;SDS011;51139;45.626;6.850;2022-12-07T00:13:46;2.33;;;0.50;;
64710;SDS011;51139;45.626;6.850;2022-12-07T00:16:16;2.42;;;0.60;;
64710;SDS011;51139;45.626;6.850;2022-12-07T00:18:43;2.67;;;0.60;;
64710;SDS011;51139;45.626;6.850;2022-12-07T00:23:39;2.85;;;0.73;;
64710;SDS011;51139;45.626;6.850;2022-12-07T00:26:06;4.55;;;0.73;;
64710;SDS011;51139;45.626;6.850;2022-12-07T00:28:34;2.28;;;0.80;;
64710;SDS011;51139;45.626;6.850;2022-12-07T00:31:10;2.75;;;0.70;;
64710;SDS011;51139;45.626;6.850;2022-12-07T00:33:37;3.55;;;0.68;;
64710;SDS011;51139;45.626;6.850;2022-12-07T00:36:04;4.18;;;0.73;;
64710;SDS011;51139;45.626;6.850;2022-12-07T00:38:32;2.15;;;0.85;;
64710;SDS011;51139;45.626;6.850;2022-12-07T00:41:04;3.35;;;0.57;;
64710;SDS011;51139;45.626;6.850;2022-12-07T00:43:31;3.33;;;0.65;;
64710;SDS011;51139;45.626;6.850;2022-12-07T00:45:57;3.58;;;0.88;;
64710;SDS011;51139;45.626;6.850;2022-12-07T00:48:23;4.07;;;0.73;;
64710;SDS011;51139;45.626;6.850;2022-12-07T00:50:49;3.30;;;0.70;;
64710;SDS011;51139;45.626;6.850;2022-12-07T00:53:15;2.25;;;0.60;;
64710;SDS011;51139;45.626;6.850;2022-12-07T00:55:41;2.33;;;0.60;;
64710;SDS011;51139;45.626;6.850;2022-12-07T00:58:07;4.05;;;1.02;;
64710;SDS011;51139;45.626;6.850;2022-12-07T01:00:33;2.33;;;0.60;;
64710;SDS011;51139;45.626;6.850;2022-12-07T01:03:00;1.90;;;0.70;;
64710;SDS011;51139;45.626;6.850;2022-12-07T01:05:26;4.05;;;1.60;;
64710;SDS011;51139;45.626;6.850;2022-12-07T01:07:51;7.65;;;2.60;;
64710;SDS011;51139;45.626;6.850;2022-12-07T01:10:16;3.05;;;1.23;;
64710;SDS011;51139;45.626;6.850;2022-12-07T01:12:42;2.97;;;0.85;;
64710;SDS011;51139;45.626;6.850;2022-12-07T01:15:07;4.53;;;0.82;;
64710;SDS011;51139;45.626;6.850;2022-12-07T01:17:33;3.80;;;0.80;;
64710;SDS011;51139;45.626;6.850;2022-12-07T01:19:59;11.23;;;3.55;;
64710;SDS011;51139;45.626;6.850;2022-12-07T01:22:25;3.70;;;0.85;;
64710;SDS011;51139;45.626;6.850;2022-12-07T01:24:50;226.73;;;13.98;;
64710;SDS011;51139;45.626;6.850;2022-12-07T01:27:16;20.52;;;2.00;;
64710;SDS011;51139;45.626;6.850;2022-12-07T01:29:41;5.18;;;0.70;;
64710;SDS011;51139;45.626;6.850;2022-12-07T01:32:07;1.10;;;0.43;;
64710;SDS011;51139;45.626;6.850;2022-12-07T01:34:32;3.75;;;0.55;;
64710;SDS011;51139;45.626;6.850;2022-12-07T01:36:57;2.83;;;0.47;;
64710;SDS011;51139;45.626;6.850;2022-12-07T01:39:23;2.55;;;0.40;;
64710;SDS011;51139;45.626;6.850;2022-12-07T01:41:48;1.30;;;0.63;;
64710;SDS011;51139;45.626;6.850;2022-12-07T01:44:27;0.47;;;0.30;;
64710;SDS011;51139;45.626;6.850;2022-12-07T01:46:56;2.03;;;0.40;;
64710;SDS011;51139;45.626;6.850;2022-12-07T01:52:17;1.65;;;0.60;;
64710;SDS011;51139;45.626;6.850;2022-12-07T01:54:48;2.47;;;0.47;;
64710;SDS011;51139;45.626;6.850;2022-12-07T01:57:16;1.58;;;0.50;;
64710;SDS011;51139;45.626;6.850;2022-12-07T01:59:43;2.55;;;0.43;;
64710;SDS011;51139;45.626;6.850;2022-12-07T02:02:13;6.40;;;1.70;;
64710;SDS011;51139;45.626;6.850;2022-12-07T02:04:50;1.27;;;0.60;;
64710;SDS011;51139;45.626;6.850;2022-12-07T02:07:17;0.93;;;0.40;;
64710;SDS011;51139;45.626;6.850;2022-12-07T02:09:44;1.35;;;0.30;;
64710;SDS011;51139;45.626;6.850;2022-12-07T02:12:10;2.72;;;0.30;;
64710;SDS011;51139;45.626;6.850;2022-12-07T02:14:35;1.50;;;0.20;;
64710;SDS011;51139;45.626;6.850;2022-12-07T02:17:07;0.50;;;0.20;;
64710;SDS011;51139;45.626;6.850;2022-12-07T02:26:12;1.60;;;0.30;;
64710;SDS011;51139;45.626;6.850;2022-12-07T02:31:33;0.88;;;0.10;;
64710;SDS011;51139;45.626;6.850;2022-12-07T02:34:11;1.70;;;0.20;;
64710;SDS011;51139;45.626;6.850;2022-12-07T02:36:44;1.15;;;0.30;;
64710;SDS011;51139;45.626;6.850;2022-12-07T02:39:17;0.68;;;0.30;;
64710;SDS011;51139;45.626;6.850;2022-12-07T02:41:50;1.17;;;0.30;;
64710;SDS011;51139;45.626;6.850;2022-12-07T02:44:19;0.70;;;0.30;;
64710;SDS011;51139;45.626;6.850;2022-12-07T02:46:53;0.98;;;0.28;;
64710;SDS011;51139;45.626;6.850;2022-12-07T02:49:23;1.85;;;0.35;;
64710;SDS011;51139;45.626;6.850;2022-12-07T02:54:18;1.75;;;0.20;;
64710;SDS011;51139;45.626;6.850;2022-12-07T03:10:07;0.43;;;0.10;;
64710;SDS011;51139;45.626;6.850;2022-12-07T03:12:46;0.75;;;0.20;;
64710;SDS011;51139;45.626;6.850;2022-12-07T03:15:35;4.23;;;0.30;;
64710;SDS011;51139;45.626;6.850;2022-12-07T03:18:08;0.40;;;0.30;;
64710;SDS011;51139;45.626;6.850;2022-12-07T03:20:37;0.35;;;0.20;;
64710;SDS011;51139;45.626;6.850;2022-12-07T03:23:06;1.17;;;0.30;;
64710;SDS011;51139;45.626;6.850;2022-12-07T03:25:35;2.83;;;0.25;;
64710;SDS011;51139;45.626;6.850;2022-12-07T03:28:06;1.02;;;0.30;;
64710;SDS011;51139;45.626;6.850;2022-12-07T03:33:07;1.48;;;0.40;;
64710;SDS011;51139;45.626;6.850;2022-12-07T03:35:40;2.97;;;0.40;;
64710;SDS011;51139;45.626;6.850;2022-12-07T03:40:44;2.13;;;0.40;;
64710;SDS011;51139;45.626;6.850;2022-12-07T03:43:17;1.27;;;0.40;;
64710;SDS011;51139;45.626;6.850;2022-12-07T03:46:07;1.42;;;0.38;;
64710;SDS011;51139;45.626;6.850;2022-12-07T03:48:47;1.13;;;0.50;;
64710;SDS011;51139;45.626;6.850;2022-12-07T03:51:21;2.67;;;0.50;;
64710;SDS011;51139;45.626;6.850;2022-12-07T03:53:54;10.90;;;2.75;;
64710;SDS011;51139;45.626;6.850;2022-12-07T03:56:24;3.38;;;0.55;;
64710;SDS011;51139;45.626;6.850;2022-12-07T03:58:52;2.47;;;0.50;;
64710;SDS011;51139;45.626;6.850;2022-12-07T04:01:18;2.90;;;0.55;;
64710;SDS011;51139;45.626;6.850;2022-12-07T04:03:44;3.58;;;0.75;;
64710;SDS011;51139;45.626;6.850;2022-12-07T04:06:09;2.58;;;0.60;;
64710;SDS011;51139;45.626;6.850;2022-12-07T04:08:35;2.42;;;0.40;;
64710;SDS011;51139;45.626;6.850;2022-12-07T04:11:00;2.20;;;0.40;;
64710;SDS011;51139;45.626;6.850;2022-12-07T04:13:26;3.55;;;1.30;;
64710;SDS011;51139;45.626;6.850;2022-12-07T04:15:51;6.22;;;1.80;;
64710;SDS011;51139;45.626;6.850;2022-12-07T04:18:17;1.42;;;0.55;;
64710;SDS011;51139;45.626;6.850;2022-12-07T04:20:42;4.28;;;0.70;;
64710;SDS011;51139;45.626;6.850;2022-12-07T04:23:07;4.90;;;1.25;;
64710;SDS011;51139;45.626;6.850;2022-12-07T04:25:33;4.07;;;1.00;;
64710;SDS011;51139;45.626;6.850;2022-12-07T04:27:58;4.70;;;0.85;;
64710;SDS011;51139;45.626;6.850;2022-12-07T04:30:24;4.55;;;0.68;;
64710;SDS011;51139;45.626;6.850;2022-12-07T04:32:50;5.65;;;0.98;;
64710;SDS011;51139;45.626;6.850;2022-12-07T04:35:15;4.18;;;0.75;;
64710;SDS011;51139;45.626;6.850;2022-12-07T04:37:40;5.22;;;1.27;;
64710;SDS011;51139;45.626;6.850;2022-12-07T04:40:09;6.93;;;2.03;;
64710;SDS011;51139;45.626;6.850;2022-12-07T04:42:36;2.72;;;0.75;;
64710;SDS011;51139;45.626;6.850;2022-12-07T04:45:02;3.67;;;0.47;;
64710;SDS011;51139;45.626;6.850;2022-12-07T04:47:28;2.33;;;0.90;;
64710;SDS011;51139;45.626;6.850;2022-12-07T04:49:53;5.05;;;0.80;;
64710;SDS011;51139;45.626;6.850;2022-12-07T04:52:18;5.80;;;0.80;;
64710;SDS011;51139;45.626;6.850;2022-12-07T04:54:44;3.35;;;0.70;;
64710;SDS011;51139;45.626;6.850;2022-12-07T04:57:09;2.70;;;0.65;;
64710;SDS011;51139;45.626;6.850;2022-12-07T04:59:34;3.42;;;1.15;;
64710;SDS011;51139;45.626;6.850;2022-12-07T05:02:00;2.90;;;0.70;;
64710;SDS011;51139;45.626;6.850;2022-12-07T05:04:25;4.43;;;1.00;;
64710;SDS011;51139;45.626;6.850;2022-12-07T05:06:50;2.50;;;0.60;;
64710;SDS011;51139;45.626;6.850;2022-12-07T05:09:16;8.90;;;0.63;;
64710;SDS011;51139;45.626;6.850;2022-12-07T05:11:41;4.20;;;1.10;;
64710;SDS011;51139;45.626;6.850;2022-12-07T05:16:44;3.42;;;0.50;;
64710;SDS011;51139;45.626;6.850;2022-12-07T05:19:11;2.42;;;0.50;;
64710;SDS011;51139;45.626;6.850;2022-12-07T05:21:37;2.80;;;0.40;;
64710;SDS011;51139;45.626;6.850;2022-12-07T05:24:03;3.42;;;0.47;;
64710;SDS011;51139;45.626;6.850;2022-12-07T05:26:30;2.22;;;0.40;;
64710;SDS011;51139;45.626;6.850;2022-12-07T05:28:55;1.17;;;0.30;;
64710;SDS011;51139;45.626;6.850;2022-12-07T05:31:22;2.35;;;0.45;;
64710;SDS011;51139;45.626;6.850;2022-12-07T05:33:48;4.03;;;1.70;;
64710;SDS011;51139;45.626;6.850;2022-12-07T05:36:14;14.57;;;1.77;;
64710;SDS011;51139;45.626;6.850;2022-12-07T05:38:39;17.08;;;7.05;;
64710;SDS011;51139;45.626;6.850;2022-12-07T05:41:06;7.03;;;1.60;;
64710;SDS011;51139;45.626;6.850;2022-12-07T05:43:53;0.95;;;0.47;;
64710;SDS011;51139;45.626;6.850;2022-12-07T05:46:18;0.73;;;0.20;;
64710;SDS011;51139;45.626;6.850;2022-12-07T05:48:43;1.00;;;0.32;;
64710;SDS011;51139;45.626;6.850;2022-12-07T05:51:09;1.10;;;0.30;;
64710;SDS011;51139;45.626;6.850;2022-12-07T05:53:34;1.88;;;0.30;;
64710;SDS011;51139;45.626;6.850;2022-12-07T05:55:59;1.17;;;0.20;;
64710;SDS011;51139;45.626;6.850;2022-12-07T05:58:25;0.63;;;0.28;;
64710;SDS011;51139;45.626;6.850;2022-12-07T06:01:09;8.02;;;0.77;;
64710;SDS011;51139;45.626;6.850;2022-12-07T06:03:34;20.35;;;1.95;;
64710;SDS011;51139;45.626;6.850;2022-12-07T06:05:59;5.88;;;0.90;;
64710;SDS011;51139;45.626;6.850;2022-12-07T06:08:25;1.30;;;0.32;;
64710;SDS011;51139;45.626;6.850;2022-12-07T06:10:50;2.55;;;0.43;;
64710;SDS011;51139;45.626;6.850;2022-12-07T06:13:35;1.70;;;0.32;;
64710;SDS011;51139;45.626;6.850;2022-12-07T06:16:01;11.88;;;1.58;;
64710;SDS011;51139;45.626;6.850;2022-12-07T06:18:26;1.33;;;0.75;;
64710;SDS011;51139;45.626;6.850;2022-12-07T06:20:51;2.00;;;0.38;;
64710;SDS011;51139;45.626;6.850;2022-12-07T06:23:17;1.40;;;0.38;;
64710;SDS011;51139;45.626;6.850;2022-12-07T06:25:45;1.15;;;0.70;;
64710;SDS011;51139;45.626;6.850;2022-12-07T06:28:10;6.32;;;0.60;;
64710;SDS011;51139;45.626;6.850;2022-12-07T06:30:36;1.33;;;0.70;;
64710;SDS011;51139;45.626;6.850;2022-12-07T06:33:01;2.35;;;0.30;;
64710;SDS011;51139;45.626;6.850;2022-12-07T06:35:26;2.00;;;0.40;;
64710;SDS011;51139;45.626;6.850;2022-12-07T06:37:52;2.22;;;0.30;;
64710;SDS011;51139;45.626;6.850;2022-12-07T06:40:17;2.70;;;0.50;;
64710;SDS011;51139;45.626;6.850;2022-12-07T06:42:43;7.30;;;1.23;;
64710;SDS011;51139;45.626;6.850;2022-12-07T06:45:08;2.78;;;0.43;;
64710;SDS011;51139;45.626;6.850;2022-12-07T06:47:34;5.10;;;0.40;;
64710;SDS011;51139;45.626;6.850;2022-12-07T06:49:59;1.23;;;0.35;;
64710;SDS011;51139;45.626;6.850;2022-12-07T06:52:24;3.45;;;0.40;;
64710;SDS011;51139;45.626;6.850;2022-12-07T06:54:50;0.95;;;0.30;;
64710;SDS011;51139;45.626;6.850;2022-12-07T06:57:15;1.95;;;0.47;;
64710;SDS011;51139;45.626;6.850;2022-12-07T06:59:40;8.43;;;0.90;;
64710;SDS011;51139;45.626;6.850;2022-12-07T07:02:07;3.63;;;0.60;;
64710;SDS011;51139;45.626;6.850;2022-12-07T07:04:33;5.72;;;0.55;;
64710;SDS011;51139;45.626;6.850;2022-12-07T07:06:59;12.98;;;1.48;;
64710;SDS011;51139;45.626;6.850;2022-12-07T07:09:24;6.15;;;1.00;;
64710;SDS011;51139;45.626;6.850;2022-12-07T07:11:49;6.82;;;0.82;;
64710;SDS011;51139;45.626;6.850;2022-12-07T07:14:15;5.10;;;0.63;;
64710;SDS011;51139;45.626;6.850;2022-12-07T07:16:44;2.70;;;0.40;;
64710;SDS011;51139;45.626;6.850;2022-12-07T07:19:09;30.88;;;2.50;;
64710;SDS011;51139;45.626;6.850;2022-12-07T07:21:36;23.58;;;2.45;;
64710;SDS011;51139;45.626;6.850;2022-12-07T07:24:01;6.10;;;0.88;;
64710;SDS011;51139;45.626;6.850;2022-12-07T07:26:27;38.47;;;3.85;;
64710;SDS011;51139;45.626;6.850;2022-12-07T07:28:52;68.07;;;5.13;;
64710;SDS011;51139;45.626;6.850;2022-12-07T07:31:17;17.33;;;1.52;;
64710;SDS011;51139;45.626;6.850;2022-12-07T07:33:43;31.42;;;4.05;;
64710;SDS011;51139;45.626;6.850;2022-12-07T07:36:10;5.13;;;2.60;;
64710;SDS011;51139;45.626;6.850;2022-12-07T07:38:36;8.98;;;1.48;;
64710;SDS011;51139;45.626;6.850;2022-12-07T07:41:01;26.85;;;2.10;;
64710;SDS011;51139;45.626;6.850;2022-12-07T07:43:26;1.13;;;0.60;;
64710;SDS011;51139;45.626;6.850;2022-12-07T07:45:52;24.67;;;3.05;;
64710;SDS011;51139;45.626;6.850;2022-12-07T07:48:17;7.28;;;1.00;;
64710;SDS011;51139;45.626;6.850;2022-12-07T07:50:42;7.57;;;1.27;;
64710;SDS011;51139;45.626;6.850;2022-12-07T07:53:08;16.67;;;1.67;;
64710;SDS011;51139;45.626;6.850;2022-12-07T07:55:33;7.95;;;1.08;;
64710;SDS011;51139;45.626;6.850;2022-12-07T07:57:59;42.70;;;12.75;;
64710;SDS011;51139;45.626;6.850;2022-12-07T08:00:24;14.65;;;6.57;;
64710;SDS011;51139;45.626;6.850;2022-12-07T08:02:49;11.30;;;4.78;;
64710;SDS011;51139;45.626;6.850;2022-12-07T08:05:15;6.35;;;2.60;;
64710;SDS011;51139;45.626;6.850;2022-12-07T08:07:40;2.70;;;0.90;;
64710;SDS011;51139;45.626;6.850;2022-12-07T08:10:06;2.65;;;0.80;;
64710;SDS011;51139;45.626;6.850;2022-12-07T08:12:37;4.93;;;0.63;;
64710;SDS011;51139;45.626;6.850;2022-12-07T08:15:25;1.98;;;0.70;;
64710;SDS011;51139;45.626;6.850;2022-12-07T08:17:51;2.53;;;0.57;;
64710;SDS011;51139;45.626;6.850;2022-12-07T08:20:16;1.30;;;0.47;;
64710;SDS011;51139;45.626;6.850;2022-12-07T08:22:42;1.10;;;0.40;;
64710;SDS011;51139;45.626;6.850;2022-12-07T08:25:07;1.23;;;0.45;;
64710;SDS011;51139;45.626;6.850;2022-12-07T08:27:33;1.65;;;0.40;;
64710;SDS011;51139;45.626;6.850;2022-12-07T08:29:58;7.55;;;0.95;;
64710;SDS011;51139;45.626;6.850;2022-12-07T08:32:23;1.42;;;0.90;;
64710;SDS011;51139;45.626;6.850;2022-12-07T08:34:49;3.20;;;0.82;;
64710;SDS011;51139;45.626;6.850;2022-12-07T08:37:14;1.48;;;0.70;;
64710;SDS011;51139;45.626;6.850;2022-12-07T08:39:40;0.95;;;0.35;;
64710;SDS011;51139;45.626;6.850;2022-12-07T08:42:05;1.08;;;0.30;;
64710;SDS011;51139;45.626;6.850;2022-12-07T08:44:31;1.48;;;0.60;;
64710;SDS011;51139;45.626;6.850;2022-12-07T08:46:57;1.45;;;0.50;;
64710;SDS011;51139;45.626;6.850;2022-12-07T08:49:27;1.75;;;0.73;;
64710;SDS011;51139;45.626;6.850;2022-12-07T08:52:00;2.03;;;0.82;;
64710;SDS011;51139;45.626;6.850;2022-12-07T08:54:27;1.05;;;0.50;;
64710;SDS011;51139;45.626;6.850;2022-12-07T08:56:54;0.88;;;0.47;;
64710;SDS011;51139;45.626;6.850;2022-12-07T08:59:21;2.08;;;0.60;;
64710;SDS011;51139;45.626;6.850;2022-12-07T09:01:47;1.15;;;0.40;;
64710;SDS011;51139;45.626;6.850;2022-12-07T09:04:13;0.40;;;0.35;;
64710;SDS011;51139;45.626;6.850;2022-12-07T09:06:38;0.40;;;0.40;;
64710;SDS011;51139;45.626;6.850;2022-12-07T09:09:03;0.73;;;0.40;;
64710;SDS011;51139;45.626;6.850;2022-12-07T09:11:29;0.90;;;0.60;;
64710;SDS011;51139;45.626;6.850;2022-12-07T09:13:55;1.08;;;0.60;;
64710;SDS011;51139;45.626;6.850;2022-12-07T09:16:20;1.95;;;1.05;;
64710;SDS011;51139;45.626;6.850;2022-12-07T09:18:46;1.65;;;0.68;;
64710;SDS011;51139;45.626;6.850;2022-12-07T09:21:11;2.42;;;0.70;;
64710;SDS011;51139;45.626;6.850;2022-12-07T09:23:36;1.70;;;0.57;;
64710;SDS011;51139;45.626;6.850;2022-12-07T09:26:02;1.15;;;0.60;;
64710;SDS011;51139;45.626;6.850;2022-12-07T09:28:30;1.65;;;0.80;;
64710;SDS011;51139;45.626;6.850;2022-12-07T09:30:55;4.22;;;1.00;;
64710;SDS011;51139;45.626;6.850;2022-12-07T09:33:21;2.38;;;1.10;;
64710;SDS011;51139;45.626;6.850;2022-12-07T09:35:46;1.65;;;0.80;;
64710;SDS011;51139;45.626;6.850;2022-12-07T09:38:13;2.47;;;0.98;;
64710;SDS011;51139;45.626;6.850;2022-12-07T09:40:38;2.83;;;1.00;;
64710;SDS011;51139;45.626;6.850;2022-12-07T09:43:05;3.55;;;1.33;;
64710;SDS011;51139;45.626;6.850;2022-12-07T09:45:37;6.68;;;1.20;;
64710;SDS011;51139;45.626;6.850;2022-12-07T09:48:03;4.10;;;1.48;;
64710;SDS011;51139;45.626;6.850;2022-12-07T09:50:29;7.53;;;1.33;;
64710;SDS011;51139;45.626;6.850;2022-12-07T09:53:09;1.90;;;1.00;;
64710;SDS011;51139;45.626;6.850;2022-12-07T09:55:40;4.63;;;1.48;;
64710;SDS011;51139;45.626;6.850;2022-12-07T09:58:29;4.25;;;1.30;;
64710;SDS011;51139;45.626;6.850;2022-12-07T10:01:05;3.67;;;1.52;;
64710;SDS011;51139;45.626;6.850;2022-12-07T10:03:35;4.47;;;1.38;;
64710;SDS011;51139;45.626;6.850;2022-12-07T10:06:04;3.00;;;1.10;;
64710;SDS011;51139;45.626;6.850;2022-12-07T10:08:30;2.70;;;1.00;;
64710;SDS011;51139;45.626;6.850;2022-12-07T10:10:57;3.78;;;1.00;;
64710;SDS011;51139;45.626;6.850;2022-12-07T10:13:39;2.25;;;1.05;;
64710;SDS011;51139;45.626;6.850;2022-12-07T10:19:16;3.40;;;1.00;;
64710;SDS011;51139;45.626;6.850;2022-12-07T10:22:03;3.40;;;0.93;;
64710;SDS011;51139;45.626;6.850;2022-12-07T10:24:35;3.65;;;1.30;;
64710;SDS011;51139;45.626;6.850;2022-12-07T10:27:02;2.05;;;1.00;;
64710;SDS011;51139;45.626;6.850;2022-12-07T10:29:31;3.53;;;1.13;;
64710;SDS011;51139;45.626;6.850;2022-12-07T10:32:04;1.92;;;1.25;;
64710;SDS011;51139;45.626;6.850;2022-12-07T10:34:31;1.40;;;0.87;;
64710;SDS011;51139;45.626;6.850;2022-12-07T10:42:24;3.17;;;1.40;;
64710;SDS011;51139;45.626;6.850;2022-12-07T10:50:23;3.97;;;1.50;;
64710;SDS011;51139;45.626;6.850;2022-12-07T11:14:53;4.07;;;1.90;;
64710;SDS011;51139;45.626;6.850;2022-12-07T11:17:35;5.15;;;2.00;;
64710;SDS011;51139;45.626;6.850;2022-12-07T11:29:16;5.53;;;2.00;;
64710;SDS011;51139;45.626;6.850;2022-12-07T11:32:02;5.10;;;2.33;;
64710;SDS011;51139;45.626;6.850;2022-12-07T11:37:38;4.07;;;1.92;;
64710;SDS011;51139;45.626;6.850;2022-12-07T11:42:49;5.95;;;2.38;;
64710;SDS011;51139;45.626;6.850;2022-12-07T11:45:37;4.43;;;2.13;;
64710;SDS011;51139;45.626;6.850;2022-12-07T11:48:09;5.55;;;2.30;;
64710;SDS011;51139;45.626;6.850;2022-12-07T11:50:40;5.03;;;2.80;;
64710;SDS011;51139;45.626;6.850;2022-12-07T11:53:18;6.70;;;2.65;;
64710;SDS011;51139;45.626;6.850;2022-12-07T11:55:58;5.40;;;2.60;;
64710;SDS011;51139;45.626;6.850;2022-12-07T12:03:45;7.30;;;2.95;;
64710;SDS011;51139;45.626;6.850;2022-12-07T12:06:13;4.57;;;2.30;;
64710;SDS011;51139;45.626;6.850;2022-12-07T12:08:43;7.15;;;2.83;;
64710;SDS011;51139;45.626;6.850;2022-12-07T12:22:44;5.55;;;2.70;;
64710;SDS011;51139;45.626;6.850;2022-12-07T12:25:24;6.80;;;2.47;;
64710;SDS011;51139;45.626;6.850;2022-12-07T12:27:54;4.25;;;2.45;;
64710;SDS011;51139;45.626;6.850;2022-12-07T12:30:24;4.72;;;2.60;;
64710;SDS011;51139;45.626;6.850;2022-12-07T12:33:13;3.85;;;2.20;;
64710;SDS011;51139;45.626;6.850;2022-12-07T12:35:43;5.88;;;2.30;;
64710;SDS011;51139;45.626;6.850;2022-12-07T12:38:29;5.55;;;2.50;;
64710;SDS011;51139;45.626;6.850;2022-12-07T12:41:02;5.70;;;2.65;;
64710;SDS011;51139;45.626;6.850;2022-12-07T12:49:24;9.80;;;3.85;;
64710;SDS011;51139;45.626;6.850;2022-12-07T12:54:32;4.50;;;2.28;;
64710;SDS011;51139;45.626;6.850;2022-12-07T13:10:25;8.10;;;2.38;;
64710;SDS011;51139;45.626;6.850;2022-12-07T13:15:51;7.18;;;2.38;;
64710;SDS011;51139;45.626;6.850;2022-12-07T13:29:15;4.05;;;1.80;;
64710;SDS011;51139;45.626;6.850;2022-12-07T13:31:46;5.68;;;2.30;;
64710;SDS011;51139;45.626;6.850;2022-12-07T13:39:54;6.22;;;2.67;;
64710;SDS011;51139;45.626;6.850;2022-12-07T13:42:26;6.10;;;2.45;;
64710;SDS011;51139;45.626;6.850;2022-12-07T13:44:56;4.78;;;2.55;;
64710;SDS011;51139;45.626;6.850;2022-12-07T13:47:43;4.75;;;2.33;;
64710;SDS011;51139;45.626;6.850;2022-12-07T13:50:24;5.15;;;2.80;;
64710;SDS011;51139;45.626;6.850;2022-12-07T13:52:50;6.32;;;2.55;;
64710;SDS011;51139;45.626;6.850;2022-12-07T13:55:21;4.75;;;2.10;;
64710;SDS011;51139;45.626;6.850;2022-12-07T13:57:50;6.03;;;2.50;;
64710;SDS011;51139;45.626;6.850;2022-12-07T14:00:18;5.60;;;2.55;;
64710;SDS011;51139;45.626;6.850;2022-12-07T14:05:46;5.22;;;2.90;;
64710;SDS011;51139;45.626;6.850;2022-12-07T14:13:37;6.93;;;3.47;;
64710;SDS011;51139;45.626;6.850;2022-12-07T14:18:52;8.65;;;3.75;;
64710;SDS011;51139;45.626;6.850;2022-12-07T14:21:19;7.20;;;3.22;;
64710;SDS011;51139;45.626;6.850;2022-12-07T14:26:35;6.35;;;3.17;;
64710;SDS011;51139;45.626;6.850;2022-12-07T14:31:47;8.38;;;3.58;;
64710;SDS011;51139;45.626;6.850;2022-12-07T14:34:13;8.90;;;3.88;;
64710;SDS011;51139;45.626;6.850;2022-12-07T14:36:38;8.23;;;3.80;;
64710;SDS011;51139;45.626;6.850;2022-12-07T14:39:04;10.20;;;4.47;;
64710;SDS011;51139;45.626;6.850;2022-12-07T14:41:29;9.90;;;4.10;;
64710;SDS011;51139;45.626;6.850;2022-12-07T14:44:13;8.23;;;4.60;;
64710;SDS011;51139;45.626;6.850;2022-12-07T14:46:39;8.88;;;4.72;;
64710;SDS011;51139;45.626;6.850;2022-12-07T14:49:04;9.90;;;4.07;;
64710;SDS011;51139;45.626;6.850;2022-12-07T14:51:30;8.85;;;4.38;;
64710;SDS011;51139;45.626;6.850;2022-12-07T14:53:56;10.27;;;4.07;;
64710;SDS011;51139;45.626;6.850;2022-12-07T14:56:21;8.73;;;4.85;;
64710;SDS011;51139;45.626;6.850;2022-12-07T14:58:47;11.18;;;4.97;;
64710;SDS011;51139;45.626;6.850;2022-12-07T15:01:13;9.07;;;4.25;;
64710;SDS011;51139;45.626;6.850;2022-12-07T15:03:39;8.38;;;4.43;;
64710;SDS011;51139;45.626;6.850;2022-12-07T15:06:05;8.77;;;4.03;;
64710;SDS011;51139;45.626;6.850;2022-12-07T15:08:31;6.18;;;3.80;;
64710;SDS011;51139;45.626;6.850;2022-12-07T15:10:56;8.38;;;4.72;;
64710;SDS011;51139;45.626;6.850;2022-12-07T15:13:22;7.85;;;4.22;;
64710;SDS011;51139;45.626;6.850;2022-12-07T15:16:08;6.53;;;3.67;;
64710;SDS011;51139;45.626;6.850;2022-12-07T15:18:36;6.68;;;3.75;;
64710;SDS011;51139;45.626;6.850;2022-12-07T15:21:01;7.60;;;4.00;;
64710;SDS011;51139;45.626;6.850;2022-12-07T15:23:28;9.50;;;4.28;;
64710;SDS011;51139;45.626;6.850;2022-12-07T15:25:54;10.98;;;4.50;;
64710;SDS011;51139;45.626;6.850;2022-12-07T15:28:19;8.30;;;4.68;;
64710;SDS011;51139;45.626;6.850;2022-12-07T15:30:45;8.73;;;4.45;;
64710;SDS011;51139;45.626;6.850;2022-12-07T15:33:10;11.48;;;4.72;;
64710;SDS011;51139;45.626;6.850;2022-12-07T15:35:43;9.27;;;4.82;;
64710;SDS011;51139;45.626;6.850;2022-12-07T15:38:09;6.78;;;3.85;;
64710;SDS011;51139;45.626;6.850;2022-12-07T15:40:35;9.65;;;4.65;;
64710;SDS011;51139;45.626;6.850;2022-12-07T15:43:01;9.80;;;4.28;;
64710;SDS011;51139;45.626;6.850;2022-12-07T15:45:26;14.15;;;5.53;;
64710;SDS011;51139;45.626;6.850;2022-12-07T15:47:52;11.38;;;6.07;;
64710;SDS011;51139;45.626;6.850;2022-12-07T15:50:17;13.60;;;6.40;;
64710;SDS011;51139;45.626;6.850;2022-12-07T15:52:43;12.15;;;6.00;;
64710;SDS011;51139;45.626;6.850;2022-12-07T15:55:09;12.55;;;6.50;;
64710;SDS011;51139;45.626;6.850;2022-12-07T15:57:35;15.50;;;8.88;;
64710;SDS011;51139;45.626;6.850;2022-12-07T16:00:03;21.73;;;14.30;;
64710;SDS011;51139;45.626;6.850;2022-12-07T16:02:29;19.73;;;11.38;;
64710;SDS011;51139;45.626;6.850;2022-12-07T16:04:55;23.08;;;11.43;;
64710;SDS011;51139;45.626;6.850;2022-12-07T16:07:20;15.93;;;9.25;;
64710;SDS011;51139;45.626;6.850;2022-12-07T16:09:46;20.60;;;11.45;;
64710;SDS011;51139;45.626;6.850;2022-12-07T16:12:12;33.08;;;15.55;;
64710;SDS011;51139;45.626;6.850;2022-12-07T16:14:38;12.68;;;5.95;;
64710;SDS011;51139;45.626;6.850;2022-12-07T16:17:05;12.27;;;6.00;;
64710;SDS011;51139;45.626;6.850;2022-12-07T16:19:31;17.70;;;7.53;;
64710;SDS011;51139;45.626;6.850;2022-12-07T16:21:57;27.27;;;8.40;;
64710;SDS011;51139;45.626;6.850;2022-12-07T16:24:23;29.30;;;10.80;;
64710;SDS011;51139;45.626;6.850;2022-12-07T16:26:48;26.92;;;11.95;;
64710;SDS011;51139;45.626;6.850;2022-12-07T16:29:15;31.02;;;10.88;;
64710;SDS011;51139;45.626;6.850;2022-12-07T16:31:40;53.45;;;12.15;;
64710;SDS011;51139;45.626;6.850;2022-12-07T16:34:06;40.47;;;11.57;;
64710;SDS011;51139;45.626;6.850;2022-12-07T16:36:32;37.17;;;18.08;;
64710;SDS011;51139;45.626;6.850;2022-12-07T16:38:58;15.50;;;6.57;;
64710;SDS011;51139;45.626;6.850;2022-12-07T16:41:24;14.57;;;7.47;;
64710;SDS011;51139;45.626;6.850;2022-12-07T16:43:49;22.75;;;7.45;;
64710;SDS011;51139;45.626;6.850;2022-12-07T16:46:15;25.63;;;8.55;;
64710;SDS011;51139;45.626;6.850;2022-12-07T16:48:41;20.70;;;7.30;;
64710;SDS011;51139;45.626;6.850;2022-12-07T16:51:07;17.98;;;7.78;;
64710;SDS011;51139;45.626;6.850;2022-12-07T16:53:35;15.82;;;5.95;;
64710;SDS011;51139;45.626;6.850;2022-12-07T16:56:01;14.68;;;6.22;;
64710;SDS011;51139;45.626;6.850;2022-12-07T16:58:27;14.43;;;6.05;;
64710;SDS011;51139;45.626;6.850;2022-12-07T17:00:53;17.48;;;8.30;;
64710;SDS011;51139;45.626;6.850;2022-12-07T17:03:18;11.43;;;5.18;;
64710;SDS011;51139;45.626;6.850;2022-12-07T17:05:44;8.18;;;4.15;;
64710;SDS011;51139;45.626;6.850;2022-12-07T17:08:10;13.15;;;4.68;;
64710;SDS011;51139;45.626;6.850;2022-12-07T17:10:38;21.33;;;5.80;;
64710;SDS011;51139;45.626;6.850;2022-12-07T17:13:06;28.20;;;8.77;;
64710;SDS011;51139;45.626;6.850;2022-12-07T17:15:55;35.95;;;9.93;;
64710;SDS011;51139;45.626;6.850;2022-12-07T17:18:26;19.42;;;6.82;;
64710;SDS011;51139;45.626;6.850;2022-12-07T17:21:01;15.20;;;4.88;;
64710;SDS011;51139;45.626;6.850;2022-12-07T17:23:31;6.50;;;2.58;;
64710;SDS011;51139;45.626;6.850;2022-12-07T17:26:03;6.15;;;2.10;;
64710;SDS011;51139;45.626;6.850;2022-12-07T17:28:29;7.55;;;1.90;;
64710;SDS011;51139;45.626;6.850;2022-12-07T17:30:54;6.93;;;1.80;;
64710;SDS011;51139;45.626;6.850;2022-12-07T17:33:20;5.05;;;2.65;;
64710;SDS011;51139;45.626;6.850;2022-12-07T17:35:46;5.28;;;1.63;;